sensor_id;sensor_type;location;lat;lon;timestamp;temperature;humidity
19031;DHT22;9648;51.130;13.978;2022-11-15T00:02:09;6.80;99.90
19031;DHT22;9648;51.130;13.978;2022-11-15T00:04:36;6.80;99.90
19031;DHT22;9648;51.130;13.978;2022-11-15T00:07:03;6.80;99.90
19031;DHT22;9648;51.130;13.978;2022-11-15T00:09:30;6.80;99.90
19031;DHT22;9648;51.130;13.978;2022-11-15T00:11:57;6.80;99.90
19031;DHT22;9648;51.130;13.978;2022-11-15T00:14:24;6.80;99.90
19031;DHT22;9648;51.130;13.978;2022-11-15T00:16:52;6.80;99.90
19031;DHT22;9648;51.130;13.978;2022-11-15T00:19:18;6.80;99.90
19031;DHT22;9648;51.130;13.978;2022-11-15T00:21:45;6.70;99.90
19031;DHT22;9648;51.130;13.978;2022-11-15T00:24:12;6.70;99.90
19031;DHT22;9648;51.130;13.978;2022-11-15T00:26:39;6.70;99.90
19031;DHT22;9648;51.130;13.978;2022-11-15T00:29:06;6.70;99.90
19031;DHT22;9648;51.130;13.978;2022-11-15T00:31:33;6.60;99.90
19031;DHT22;9648;51.130;13.978;2022-11-15T00:34:01;6.70;99.90
19031;DHT22;9648;51.130;13.978;2022-11-15T00:36:28;6.60;99.90
19031;DHT22;9648;51.130;13.978;2022-11-15T00:38:54;6.70;99.90
19031;DHT22;9648;51.130;13.978;2022-11-15T00:41:21;6.70;99.90
19031;DHT22;9648;51.130;13.978;2022-11-15T00:43:48;6.70;99.90
19031;DHT22;9648;51.130;13.978;2022-11-15T00:46:15;6.70;99.90
19031;DHT22;9648;51.130;13.978;2022-11-15T00:48:42;6.70;99.90
19031;DHT22;9648;51.130;13.978;2022-11-15T00:51:10;6.70;99.90
19031;DHT22;9648;51.130;13.978;2022-11-15T00:53:37;6.70;99.90
19031;DHT22;9648;51.130;13.978;2022-11-15T00:56:04;6.70;99.90
19031;DHT22;9648;51.130;13.978;2022-11-15T00:58:31;6.70;99.90
19031;DHT22;9648;51.130;13.978;2022-11-15T01:01:05;6.60;99.90
19031;DHT22;9648;51.130;13.978;2022-11-15T01:03:32;6.60;99.90
19031;DHT22;9648;51.130;13.978;2022-11-15T01:05:59;6.60;99.90
19031;DHT22;9648;51.130;13.978;2022-11-15T01:08:27;6.60;99.90
19031;DHT22;9648;51.130;13.978;2022-11-15T01:10:54;6.50;99.90
19031;DHT22;9648;51.130;13.978;2022-11-15T01:13:26;6.50;99.90
19031;DHT22;9648;51.130;13.978;2022-11-15T01:15:55;6.50;99.90
19031;DHT22;9648;51.130;13.978;2022-11-15T01:18:22;6.50;99.90
19031;DHT22;9648;51.130;13.978;2022-11-15T01:20:49;6.50;99.90
19031;DHT22;9648;51.130;13.978;2022-11-15T01:23:16;6.50;99.90
19031;DHT22;9648;51.130;13.978;2022-11-15T01:25:44;6.50;99.90
19031;DHT22;9648;51.130;13.978;2022-11-15T01:28:11;6.50;99.90
19031;DHT22;9648;51.130;13.978;2022-11-15T01:30:37;6.50;99.90
19031;DHT22;9648;51.130;13.978;2022-11-15T01:33:04;6.50;99.90
19031;DHT22;9648;51.130;13.978;2022-11-15T01:35:31;6.50;99.90
19031;DHT22;9648;51.130;13.978;2022-11-15T01:37:58;6.50;99.90
19031;DHT22;9648;51.130;13.978;2022-11-15T01:40:25;6.50;99.90
19031;DHT22;9648;51.130;13.978;2022-11-15T01:42:53;6.50;99.90
19031;DHT22;9648;51.130;13.978;2022-11-15T01:45:20;6.40;99.90
19031;DHT22;9648;51.130;13.978;2022-11-15T01:47:50;6.40;99.90
19031;DHT22;9648;51.130;13.978;2022-11-15T01:50:21;6.40;99.90
19031;DHT22;9648;51.130;13.978;2022-11-15T01:52:48;6.40;99.90
19031;DHT22;9648;51.130;13.978;2022-11-15T01:55:19;6.40;99.90
19031;DHT22;9648;51.130;13.978;2022-11-15T01:57:48;6.40;99.90
19031;DHT22;9648;51.130;13.978;2022-11-15T02:00:18;6.40;99.90
19031;DHT22;9648;51.130;13.978;2022-11-15T02:02:45;6.30;99.90
19031;DHT22;9648;51.130;13.978;2022-11-15T02:05:11;6.40;99.90
19031;DHT22;9648;51.130;13.978;2022-11-15T02:07:38;6.30;99.90
19031;DHT22;9648;51.130;13.978;2022-11-15T02:10:09;6.40;99.90
19031;DHT22;9648;51.130;13.978;2022-11-15T02:12:36;6.30;99.90
19031;DHT22;9648;51.130;13.978;2022-11-15T02:15:04;6.30;99.90
19031;DHT22;9648;51.130;13.978;2022-11-15T02:17:45;6.30;99.90
19031;DHT22;9648;51.130;13.978;2022-11-15T02:20:39;6.30;99.90
19031;DHT22;9648;51.130;13.978;2022-11-15T02:23:56;6.30;99.90
19031;DHT22;9648;51.130;13.978;2022-11-15T02:29:43;6.30;99.90
19031;DHT22;9648;51.130;13.978;2022-11-15T02:32:20;6.30;99.90
19031;DHT22;9648;51.130;13.978;2022-11-15T02:34:54;6.30;99.90
19031;DHT22;9648;51.130;13.978;2022-11-15T02:37:29;6.30;99.90
19031;DHT22;9648;51.130;13.978;2022-11-15T02:40:02;6.30;99.90
19031;DHT22;9648;51.130;13.978;2022-11-15T02:42:36;6.30;99.90
19031;DHT22;9648;51.130;13.978;2022-11-15T02:45:27;6.30;99.90
19031;DHT22;9648;51.130;13.978;2022-11-15T02:47:58;6.20;99.90
19031;DHT22;9648;51.130;13.978;2022-11-15T02:50:29;6.20;99.90
19031;DHT22;9648;51.130;13.978;2022-11-15T02:52:56;6.20;99.90
19031;DHT22;9648;51.130;13.978;2022-11-15T02:55:28;6.20;99.90
19031;DHT22;9648;51.130;13.978;2022-11-15T02:58:19;6.20;99.90
19031;DHT22;9648;51.130;13.978;2022-11-15T03:00:50;6.10;99.90
19031;DHT22;9648;51.130;13.978;2022-11-15T03:03:48;6.10;99.90
19031;DHT22;9648;51.130;13.978;2022-11-15T03:06:24;6.10;99.90
19031;DHT22;9648;51.130;13.978;2022-11-15T03:09:02;6.10;99.90
19031;DHT22;9648;51.130;13.978;2022-11-15T03:11:33;6.10;99.90
19031;DHT22;9648;51.130;13.978;2022-11-15T03:14:06;6.00;99.90
19031;DHT22;9648;51.130;13.978;2022-11-15T03:16:37;6.00;99.90
19031;DHT22;9648;51.130;13.978;2022-11-15T03:19:13;6.00;99.90
19031;DHT22;9648;51.130;13.978;2022-11-15T03:21:43;5.90;99.90
19031;DHT22;9648;51.130;13.978;2022-11-15T03:24:12;5.90;99.90
19031;DHT22;9648;51.130;13.978;2022-11-15T03:26:41;5.90;99.90
19031;DHT22;9648;51.130;13.978;2022-11-15T03:29:12;5.90;99.90
19031;DHT22;9648;51.130;13.978;2022-11-15T03:31:42;5.90;99.90
19031;DHT22;9648;51.130;13.978;2022-11-15T03:34:19;5.90;99.90
19031;DHT22;9648;51.130;13.978;2022-11-15T03:36:49;5.80;99.90
19031;DHT22;9648;51.130;13.978;2022-11-15T03:39:16;5.80;99.90
19031;DHT22;9648;51.130;13.978;2022-11-15T03:41:48;5.80;99.90
19031;DHT22;9648;51.130;13.978;2022-11-15T03:44:21;5.90;99.90
19031;DHT22;9648;51.130;13.978;2022-11-15T03:46:57;5.90;99.90
19031;DHT22;9648;51.130;13.978;2022-11-15T03:49:29;5.90;99.90
19031;DHT22;9648;51.130;13.978;2022-11-15T03:51:58;5.80;99.90
19031;DHT22;9648;51.130;13.978;2022-11-15T03:54:25;5.80;99.90
19031;DHT22;9648;51.130;13.978;2022-11-15T03:56:52;5.80;99.90
19031;DHT22;9648;51.130;13.978;2022-11-15T03:59:19;5.80;99.90
19031;DHT22;9648;51.130;13.978;2022-11-15T04:01:45;5.80;99.90
19031;DHT22;9648;51.130;13.978;2022-11-15T04:04:12;5.80;99.90
19031;DHT22;9648;51.130;13.978;2022-11-15T04:06:41;5.80;99.90
19031;DHT22;9648;51.130;13.978;2022-11-15T04:09:07;5.80;99.90
19031;DHT22;9648;51.130;13.978;2022-11-15T04:11:34;5.70;99.90
19031;DHT22;9648;51.130;13.978;2022-11-15T04:14:01;5.80;99.90
19031;DHT22;9648;51.130;13.978;2022-11-15T04:16:28;5.80;99.90
19031;DHT22;9648;51.130;13.978;2022-11-15T04:18:55;5.80;99.90
19031;DHT22;9648;51.130;13.978;2022-11-15T04:21:35;5.80;99.90
19031;DHT22;9648;51.130;13.978;2022-11-15T04:24:22;5.80;99.90
19031;DHT22;9648;51.130;13.978;2022-11-15T04:26:49;5.90;99.90
19031;DHT22;9648;51.130;13.978;2022-11-15T04:29:15;5.90;99.90
19031;DHT22;9648;51.130;13.978;2022-11-15T04:32:00;5.80;99.90
19031;DHT22;9648;51.130;13.978;2022-11-15T04:34:27;5.90;99.90
19031;DHT22;9648;51.130;13.978;2022-11-15T04:36:54;5.90;99.90
19031;DHT22;9648;51.130;13.978;2022-11-15T04:39:43;5.90;99.90
19031;DHT22;9648;51.130;13.978;2022-11-15T04:42:10;5.80;99.90
19031;DHT22;9648;51.130;13.978;2022-11-15T04:44:37;5.80;99.90
19031;DHT22;9648;51.130;13.978;2022-11-15T04:47:04;5.80;99.90
19031;DHT22;9648;51.130;13.978;2022-11-15T04:49:31;5.80;99.90
19031;DHT22;9648;51.130;13.978;2022-11-15T04:51:58;5.80;99.90
19031;DHT22;9648;51.130;13.978;2022-11-15T04:54:25;5.80;99.90
19031;DHT22;9648;51.130;13.978;2022-11-15T04:56:53;5.80;99.90
19031;DHT22;9648;51.130;13.978;2022-11-15T04:59:20;5.90;99.90
19031;DHT22;9648;51.130;13.978;2022-11-15T05:01:47;5.90;99.90
19031;DHT22;9648;51.130;13.978;2022-11-15T05:04:14;5.90;99.90
19031;DHT22;9648;51.130;13.978;2022-11-15T05:06:47;5.90;99.90
19031;DHT22;9648;51.130;13.978;2022-11-15T05:09:14;5.90;99.90
19031;DHT22;9648;51.130;13.978;2022-11-15T05:11:41;5.90;99.90
19031;DHT22;9648;51.130;13.978;2022-11-15T05:14:09;5.90;99.90
19031;DHT22;9648;51.130;13.978;2022-11-15T05:16:36;5.90;99.90
19031;DHT22;9648;51.130;13.978;2022-11-15T05:19:04;5.90;99.90
19031;DHT22;9648;51.130;13.978;2022-11-15T05:21:32;5.90;99.90
19031;DHT22;9648;51.130;13.978;2022-11-15T05:23:59;5.90;99.90
19031;DHT22;9648;51.130;13.978;2022-11-15T05:26:26;5.80;99.90
19031;DHT22;9648;51.130;13.978;2022-11-15T05:28:53;5.80;99.90
19031;DHT22;9648;51.130;13.978;2022-11-15T05:31:22;5.80;99.90
19031;DHT22;9648;51.130;13.978;2022-11-15T05:33:49;5.80;99.90
19031;DHT22;9648;51.130;13.978;2022-11-15T05:36:20;5.80;99.90
19031;DHT22;9648;51.130;13.978;2022-11-15T05:38:48;5.80;99.90
19031;DHT22;9648;51.130;13.978;2022-11-15T05:41:17;5.80;99.90
19031;DHT22;9648;51.130;13.978;2022-11-15T05:43:46;5.70;99.90
19031;DHT22;9648;51.130;13.978;2022-11-15T05:46:14;5.80;99.90
19031;DHT22;9648;51.130;13.978;2022-11-15T05:48:46;5.80;99.90
19031;DHT22;9648;51.130;13.978;2022-11-15T05:51:14;5.70;99.90
19031;DHT22;9648;51.130;13.978;2022-11-15T05:53:42;5.70;99.90
19031;DHT22;9648;51.130;13.978;2022-11-15T05:56:09;5.70;99.90
19031;DHT22;9648;51.130;13.978;2022-11-15T05:58:37;5.70;99.90
19031;DHT22;9648;51.130;13.978;2022-11-15T06:01:04;5.70;99.90
19031;DHT22;9648;51.130;13.978;2022-11-15T06:03:31;5.60;99.90
19031;DHT22;9648;51.130;13.978;2022-11-15T06:06:00;5.60;99.90
19031;DHT22;9648;51.130;13.978;2022-11-15T06:08:27;5.60;99.90
19031;DHT22;9648;51.130;13.978;2022-11-15T06:10:53;5.50;99.90
19031;DHT22;9648;51.130;13.978;2022-11-15T06:13:20;5.60;99.90
19031;DHT22;9648;51.130;13.978;2022-11-15T06:15:47;5.50;99.90
19031;DHT22;9648;51.130;13.978;2022-11-15T06:18:14;5.50;99.90
19031;DHT22;9648;51.130;13.978;2022-11-15T06:20:41;5.50;99.90
19031;DHT22;9648;51.130;13.978;2022-11-15T06:23:09;5.50;99.90
19031;DHT22;9648;51.130;13.978;2022-11-15T06:25:36;5.50;99.90
19031;DHT22;9648;51.130;13.978;2022-11-15T06:28:03;5.60;99.90
19031;DHT22;9648;51.130;13.978;2022-11-15T06:30:30;5.60;99.90
19031;DHT22;9648;51.130;13.978;2022-11-15T06:33:00;5.60;99.90
19031;DHT22;9648;51.130;13.978;2022-11-15T06:35:28;5.60;99.90
19031;DHT22;9648;51.130;13.978;2022-11-15T06:37:56;5.70;99.90
19031;DHT22;9648;51.130;13.978;2022-11-15T06:40:24;5.70;99.90
19031;DHT22;9648;51.130;13.978;2022-11-15T06:42:51;5.70;99.90
19031;DHT22;9648;51.130;13.978;2022-11-15T06:45:23;5.70;99.90
19031;DHT22;9648;51.130;13.978;2022-11-15T06:47:50;5.80;99.90
19031;DHT22;9648;51.130;13.978;2022-11-15T06:50:16;5.80;99.90
19031;DHT22;9648;51.130;13.978;2022-11-15T06:52:43;5.80;99.90
19031;DHT22;9648;51.130;13.978;2022-11-15T06:55:10;5.80;99.90
19031;DHT22;9648;51.130;13.978;2022-11-15T06:57:46;5.90;99.90
19031;DHT22;9648;51.130;13.978;2022-11-15T07:00:15;5.90;99.90
19031;DHT22;9648;51.130;13.978;2022-11-15T07:02:42;6.00;99.90
19031;DHT22;9648;51.130;13.978;2022-11-15T07:05:09;6.00;99.90
19031;DHT22;9648;51.130;13.978;2022-11-15T07:07:35;6.00;99.90
19031;DHT22;9648;51.130;13.978;2022-11-15T07:10:02;6.00;99.90
19031;DHT22;9648;51.130;13.978;2022-11-15T07:12:29;6.00;99.90
19031;DHT22;9648;51.130;13.978;2022-11-15T07:14:58;6.10;99.90
19031;DHT22;9648;51.130;13.978;2022-11-15T07:17:24;6.10;99.90
19031;DHT22;9648;51.130;13.978;2022-11-15T07:19:51;6.10;99.90
19031;DHT22;9648;51.130;13.978;2022-11-15T07:22:18;6.10;99.90
19031;DHT22;9648;51.130;13.978;2022-11-15T07:24:45;6.10;99.90
19031;DHT22;9648;51.130;13.978;2022-11-15T07:27:11;6.20;99.90
19031;DHT22;9648;51.130;13.978;2022-11-15T07:29:38;6.30;99.90
19031;DHT22;9648;51.130;13.978;2022-11-15T07:32:06;6.30;99.90
19031;DHT22;9648;51.130;13.978;2022-11-15T07:34:33;6.30;99.90
19031;DHT22;9648;51.130;13.978;2022-11-15T07:37:00;6.40;99.90
19031;DHT22;9648;51.130;13.978;2022-11-15T07:39:27;6.40;99.90
19031;DHT22;9648;51.130;13.978;2022-11-15T07:41:54;6.50;99.90
19031;DHT22;9648;51.130;13.978;2022-11-15T07:44:41;6.50;99.90
19031;DHT22;9648;51.130;13.978;2022-11-15T07:47:09;6.60;99.90
19031;DHT22;9648;51.130;13.978;2022-11-15T07:49:36;6.60;99.90
19031;DHT22;9648;51.130;13.978;2022-11-15T07:52:03;6.60;99.90
19031;DHT22;9648;51.130;13.978;2022-11-15T07:54:30;6.70;99.90
19031;DHT22;9648;51.130;13.978;2022-11-15T07:56:57;6.70;99.90
19031;DHT22;9648;51.130;13.978;2022-11-15T07:59:23;6.70;99.90
19031;DHT22;9648;51.130;13.978;2022-11-15T08:01:50;6.80;99.90
19031;DHT22;9648;51.130;13.978;2022-11-15T08:04:18;6.80;99.90
19031;DHT22;9648;51.130;13.978;2022-11-15T08:06:45;6.90;99.90
19031;DHT22;9648;51.130;13.978;2022-11-15T08:09:12;6.90;99.90
19031;DHT22;9648;51.130;13.978;2022-11-15T08:11:39;7.00;99.90
19031;DHT22;9648;51.130;13.978;2022-11-15T08:14:06;7.00;99.90
19031;DHT22;9648;51.130;13.978;2022-11-15T08:16:33;7.10;99.90
19031;DHT22;9648;51.130;13.978;2022-11-15T08:19:00;7.20;99.90
19031;DHT22;9648;51.130;13.978;2022-11-15T08:21:28;7.20;99.90
19031;DHT22;9648;51.130;13.978;2022-11-15T08:23:55;7.20;99.90
19031;DHT22;9648;51.130;13.978;2022-11-15T08:26:21;7.30;99.90
19031;DHT22;9648;51.130;13.978;2022-11-15T08:28:50;7.40;99.90
19031;DHT22;9648;51.130;13.978;2022-11-15T08:31:18;7.40;99.90
19031;DHT22;9648;51.130;13.978;2022-11-15T08:33:45;7.40;99.90
19031;DHT22;9648;51.130;13.978;2022-11-15T08:36:13;7.40;99.90
19031;DHT22;9648;51.130;13.978;2022-11-15T08:38:42;7.50;99.90
19031;DHT22;9648;51.130;13.978;2022-11-15T08:41:13;7.50;99.90
19031;DHT22;9648;51.130;13.978;2022-11-15T08:43:41;7.60;99.90
19031;DHT22;9648;51.130;13.978;2022-11-15T08:46:09;7.60;99.90
19031;DHT22;9648;51.130;13.978;2022-11-15T08:48:39;7.70;99.90
19031;DHT22;9648;51.130;13.978;2022-11-15T08:51:06;7.70;99.90
19031;DHT22;9648;51.130;13.978;2022-11-15T08:53:34;7.70;99.90
19031;DHT22;9648;51.130;13.978;2022-11-15T08:56:03;7.80;99.90
19031;DHT22;9648;51.130;13.978;2022-11-15T08:58:33;7.90;99.90
19031;DHT22;9648;51.130;13.978;2022-11-15T09:01:00;7.90;99.90
19031;DHT22;9648;51.130;13.978;2022-11-15T09:03:27;7.90;99.90
19031;DHT22;9648;51.130;13.978;2022-11-15T09:05:55;7.90;99.90
19031;DHT22;9648;51.130;13.978;2022-11-15T09:08:22;8.00;99.90
19031;DHT22;9648;51.130;13.978;2022-11-15T09:10:49;8.00;99.90
19031;DHT22;9648;51.130;13.978;2022-11-15T09:13:17;8.10;99.90
19031;DHT22;9648;51.130;13.978;2022-11-15T09:15:44;8.10;99.90
19031;DHT22;9648;51.130;13.978;2022-11-15T09:18:11;8.20;99.90
19031;DHT22;9648;51.130;13.978;2022-11-15T09:20:38;8.20;99.90
19031;DHT22;9648;51.130;13.978;2022-11-15T09:23:05;8.20;99.90
19031;DHT22;9648;51.130;13.978;2022-11-15T09:25:32;8.30;99.90
19031;DHT22;9648;51.130;13.978;2022-11-15T09:27:59;8.40;99.90
19031;DHT22;9648;51.130;13.978;2022-11-15T09:30:27;8.40;99.90
19031;DHT22;9648;51.130;13.978;2022-11-15T09:32:55;8.50;99.90
19031;DHT22;9648;51.130;13.978;2022-11-15T09:35:21;8.50;99.90
19031;DHT22;9648;51.130;13.978;2022-11-15T09:37:48;8.60;99.90
19031;DHT22;9648;51.130;13.978;2022-11-15T09:40:24;8.60;99.90
19031;DHT22;9648;51.130;13.978;2022-11-15T09:43:04;8.60;99.90
19031;DHT22;9648;51.130;13.978;2022-11-15T09:45:43;8.70;99.90
19031;DHT22;9648;51.130;13.978;2022-11-15T09:48:42;8.80;99.90
19031;DHT22;9648;51.130;13.978;2022-11-15T09:51:17;8.80;99.90
19031;DHT22;9648;51.130;13.978;2022-11-15T09:53:50;8.80;99.90
19031;DHT22;9648;51.130;13.978;2022-11-15T09:56:21;8.90;99.90
19031;DHT22;9648;51.130;13.978;2022-11-15T09:58:57;9.00;99.90
19031;DHT22;9648;51.130;13.978;2022-11-15T10:01:38;9.00;99.90
19031;DHT22;9648;51.130;13.978;2022-11-15T10:04:05;9.00;99.90
19031;DHT22;9648;51.130;13.978;2022-11-15T10:06:35;9.10;99.90
19031;DHT22;9648;51.130;13.978;2022-11-15T10:09:11;9.20;99.90
19031;DHT22;9648;51.130;13.978;2022-11-15T10:11:41;9.20;99.90
19031;DHT22;9648;51.130;13.978;2022-11-15T10:14:11;9.20;99.90
19031;DHT22;9648;51.130;13.978;2022-11-15T10:19:51;9.30;99.90
19031;DHT22;9648;51.130;13.978;2022-11-15T10:22:25;9.30;99.90
19031;DHT22;9648;51.130;13.978;2022-11-15T10:25:13;9.40;99.90
19031;DHT22;9648;51.130;13.978;2022-11-15T10:27:42;9.40;99.90
19031;DHT22;9648;51.130;13.978;2022-11-15T10:30:12;9.40;99.90
19031;DHT22;9648;51.130;13.978;2022-11-15T10:32:43;9.40;99.90
19031;DHT22;9648;51.130;13.978;2022-11-15T10:35:22;9.40;99.90
19031;DHT22;9648;51.130;13.978;2022-11-15T10:37:49;9.50;99.90
19031;DHT22;9648;51.130;13.978;2022-11-15T10:40:19;9.50;99.90
19031;DHT22;9648;51.130;13.978;2022-11-15T10:42:46;9.50;99.90
19031;DHT22;9648;51.130;13.978;2022-11-15T10:45:25;9.50;99.90
19031;DHT22;9648;51.130;13.978;2022-11-15T10:47:53;9.60;99.90
19031;DHT22;9648;51.130;13.978;2022-11-15T10:50:41;9.60;99.90
19031;DHT22;9648;51.130;13.978;2022-11-15T10:53:17;9.60;99.90
19031;DHT22;9648;51.130;13.978;2022-11-15T10:55:47;9.60;99.90
19031;DHT22;9648;51.130;13.978;2022-11-15T10:58:22;9.60;99.90
19031;DHT22;9648;51.130;13.978;2022-11-15T11:00:54;9.60;99.90
19031;DHT22;9648;51.130;13.978;2022-11-15T11:03:29;9.60;99.90
19031;DHT22;9648;51.130;13.978;2022-11-15T11:06:05;9.70;99.90
19031;DHT22;9648;51.130;13.978;2022-11-15T11:08:32;9.70;99.90
19031;DHT22;9648;51.130;13.978;2022-11-15T11:11:01;9.70;99.90
19031;DHT22;9648;51.130;13.978;2022-11-15T11:13:29;9.70;99.90
19031;DHT22;9648;51.130;13.978;2022-11-15T11:16:08;9.70;99.90
19031;DHT22;9648;51.130;13.978;2022-11-15T11:18:41;9.80;99.90
19031;DHT22;9648;51.130;13.978;2022-11-15T11:21:15;9.90;99.90
19031;DHT22;9648;51.130;13.978;2022-11-15T11:23:49;9.90;99.90
19031;DHT22;9648;51.130;13.978;2022-11-15T11:26:38;10.00;99.90
19031;DHT22;9648;51.130;13.978;2022-11-15T11:29:20;10.00;99.90
19031;DHT22;9648;51.130;13.978;2022-11-15T11:31:55;10.00;99.90
19031;DHT22;9648;51.130;13.978;2022-11-15T11:34:37;10.00;99.90
19031;DHT22;9648;51.130;13.978;2022-11-15T11:37:14;10.00;99.90
19031;DHT22;9648;51.130;13.978;2022-11-15T11:39:52;10.00;99.90
19031;DHT22;9648;51.130;13.978;2022-11-15T11:42:29;10.00;99.90
19031;DHT22;9648;51.130;13.978;2022-11-15T11:45:03;10.00;99.90
19031;DHT22;9648;51.130;13.978;2022-11-15T11:47:39;10.10;99.90
19031;DHT22;9648;51.130;13.978;2022-11-15T11:50:13;10.20;99.90
19031;DHT22;9648;51.130;13.978;2022-11-15T11:52:54;10.20;99.90
19031;DHT22;9648;51.130;13.978;2022-11-15T11:55:26;10.20;99.90
19031;DHT22;9648;51.130;13.978;2022-11-15T11:58:03;10.20;99.90
19031;DHT22;9648;51.130;13.978;2022-11-15T12:00:35;10.20;99.90
19031;DHT22;9648;51.130;13.978;2022-11-15T12:03:09;10.20;99.90
19031;DHT22;9648;51.130;13.978;2022-11-15T12:05:40;10.20;99.90
19031;DHT22;9648;51.130;13.978;2022-11-15T12:08:30;10.20;99.90
19031;DHT22;9648;51.130;13.978;2022-11-15T12:11:04;10.20;99.90
19031;DHT22;9648;51.130;13.978;2022-11-15T12:13:33;10.20;99.90
19031;DHT22;9648;51.130;13.978;2022-11-15T12:16:07;10.20;99.90
19031;DHT22;9648;51.130;13.978;2022-11-15T12:18:37;10.20;99.90
19031;DHT22;9648;51.130;13.978;2022-11-15T12:21:08;10.20;99.90
19031;DHT22;9648;51.130;13.978;2022-11-15T12:23:44;10.10;99.90
19031;DHT22;9648;51.130;13.978;2022-11-15T12:26:17;10.20;99.90
19031;DHT22;9648;51.130;13.978;2022-11-15T12:28:47;10.20;99.90
19031;DHT22;9648;51.130;13.978;2022-11-15T12:31:18;10.20;99.90
19031;DHT22;9648;51.130;13.978;2022-11-15T12:33:47;10.10;99.90
19031;DHT22;9648;51.130;13.978;2022-11-15T12:39:11;10.10;99.90
19031;DHT22;9648;51.130;13.978;2022-11-15T12:41:39;10.10;99.90
19031;DHT22;9648;51.130;13.978;2022-11-15T12:44:11;10.10;99.90
19031;DHT22;9648;51.130;13.978;2022-11-15T12:47:01;10.20;99.90
19031;DHT22;9648;51.130;13.978;2022-11-15T12:49:45;10.20;99.90
19031;DHT22;9648;51.130;13.978;2022-11-15T12:52:12;10.20;99.90
19031;DHT22;9648;51.130;13.978;2022-11-15T12:55:08;10.20;99.90
19031;DHT22;9648;51.130;13.978;2022-11-15T12:57:50;10.10;99.90
19031;DHT22;9648;51.130;13.978;2022-11-15T13:00:43;10.20;99.90
19031;DHT22;9648;51.130;13.978;2022-11-15T13:03:25;10.10;99.90
19031;DHT22;9648;51.130;13.978;2022-11-15T13:05:58;10.00;99.90
19031;DHT22;9648;51.130;13.978;2022-11-15T13:08:44;10.00;99.90
19031;DHT22;9648;51.130;13.978;2022-11-15T13:11:47;10.00;99.90
19031;DHT22;9648;51.130;13.978;2022-11-15T13:14:46;10.00;99.90
19031;DHT22;9648;51.130;13.978;2022-11-15T13:17:35;9.90;99.90
19031;DHT22;9648;51.130;13.978;2022-11-15T13:20:26;9.80;99.90
19031;DHT22;9648;51.130;13.978;2022-11-15T13:23:00;9.80;99.90
19031;DHT22;9648;51.130;13.978;2022-11-15T13:25:51;9.80;99.90
19031;DHT22;9648;51.130;13.978;2022-11-15T13:28:30;9.80;99.90
19031;DHT22;9648;51.130;13.978;2022-11-15T13:30:59;9.80;99.90
19031;DHT22;9648;51.130;13.978;2022-11-15T13:33:33;9.80;99.90
19031;DHT22;9648;51.130;13.978;2022-11-15T13:36:03;9.80;99.90
19031;DHT22;9648;51.130;13.978;2022-11-15T13:38:32;9.80;99.90
19031;DHT22;9648;51.130;13.978;2022-11-15T13:41:10;9.70;99.90
19031;DHT22;9648;51.130;13.978;2022-11-15T13:43:39;9.60;99.90
19031;DHT22;9648;51.130;13.978;2022-11-15T13:46:10;9.60;99.90
19031;DHT22;9648;51.130;13.978;2022-11-15T13:48:38;9.50;99.90
19031;DHT22;9648;51.130;13.978;2022-11-15T13:51:08;9.40;99.90
19031;DHT22;9648;51.130;13.978;2022-11-15T13:53:40;9.40;99.90
19031;DHT22;9648;51.130;13.978;2022-11-15T13:56:08;9.30;99.90
19031;DHT22;9648;51.130;13.978;2022-11-15T13:58:39;9.30;99.90
19031;DHT22;9648;51.130;13.978;2022-11-15T14:01:06;9.20;99.90
19031;DHT22;9648;51.130;13.978;2022-11-15T14:03:37;9.20;99.90
19031;DHT22;9648;51.130;13.978;2022-11-15T14:06:09;9.20;99.90
19031;DHT22;9648;51.130;13.978;2022-11-15T14:08:38;9.10;99.90
19031;DHT22;9648;51.130;13.978;2022-11-15T14:11:08;9.00;99.90
19031;DHT22;9648;51.130;13.978;2022-11-15T14:13:36;9.00;99.90
19031;DHT22;9648;51.130;13.978;2022-11-15T14:16:15;8.90;99.90
19031;DHT22;9648;51.130;13.978;2022-11-15T14:18:45;8.80;99.90
19031;DHT22;9648;51.130;13.978;2022-11-15T14:21:13;8.70;99.90
19031;DHT22;9648;51.130;13.978;2022-11-15T14:23:39;8.70;99.90
19031;DHT22;9648;51.130;13.978;2022-11-15T14:26:25;8.70;99.90
19031;DHT22;9648;51.130;13.978;2022-11-15T14:28:52;8.60;99.90
19031;DHT22;9648;51.130;13.978;2022-11-15T14:31:21;8.50;99.90
19031;DHT22;9648;51.130;13.978;2022-11-15T14:33:48;8.30;99.90
19031;DHT22;9648;51.130;13.978;2022-11-15T14:36:16;8.20;99.90
19031;DHT22;9648;51.130;13.978;2022-11-15T14:38:44;8.10;99.90
19031;DHT22;9648;51.130;13.978;2022-11-15T14:41:18;8.00;99.90
19031;DHT22;9648;51.130;13.978;2022-11-15T14:43:45;7.90;99.90
19031;DHT22;9648;51.130;13.978;2022-11-15T14:46:12;7.80;99.90
19031;DHT22;9648;51.130;13.978;2022-11-15T14:48:40;7.80;99.90
19031;DHT22;9648;51.130;13.978;2022-11-15T14:51:12;7.70;99.90
19031;DHT22;9648;51.130;13.978;2022-11-15T14:53:39;7.60;99.90
19031;DHT22;9648;51.130;13.978;2022-11-15T14:56:06;7.50;99.90
19031;DHT22;9648;51.130;13.978;2022-11-15T14:58:33;7.40;99.90
19031;DHT22;9648;51.130;13.978;2022-11-15T15:01:02;7.40;99.90
19031;DHT22;9648;51.130;13.978;2022-11-15T15:03:29;7.30;99.90
19031;DHT22;9648;51.130;13.978;2022-11-15T15:05:57;7.20;99.90
19031;DHT22;9648;51.130;13.978;2022-11-15T15:08:24;7.20;99.90
19031;DHT22;9648;51.130;13.978;2022-11-15T15:10:51;7.10;99.90
19031;DHT22;9648;51.130;13.978;2022-11-15T15:13:19;6.90;99.90
19031;DHT22;9648;51.130;13.978;2022-11-15T15:15:47;6.90;99.90
19031;DHT22;9648;51.130;13.978;2022-11-15T15:18:15;6.80;99.90
19031;DHT22;9648;51.130;13.978;2022-11-15T15:20:44;6.70;99.90
19031;DHT22;9648;51.130;13.978;2022-11-15T15:23:16;6.60;99.90
19031;DHT22;9648;51.130;13.978;2022-11-15T15:25:44;6.60;99.90
19031;DHT22;9648;51.130;13.978;2022-11-15T15:28:11;6.50;99.90
19031;DHT22;9648;51.130;13.978;2022-11-15T15:30:38;6.40;99.90
19031;DHT22;9648;51.130;13.978;2022-11-15T15:33:06;6.30;99.90
19031;DHT22;9648;51.130;13.978;2022-11-15T15:35:34;6.30;99.90
19031;DHT22;9648;51.130;13.978;2022-11-15T15:38:01;6.30;99.90
19031;DHT22;9648;51.130;13.978;2022-11-15T15:40:32;6.20;99.90
19031;DHT22;9648;51.130;13.978;2022-11-15T15:42:59;6.20;99.90
19031;DHT22;9648;51.130;13.978;2022-11-15T15:45:26;6.10;99.90
19031;DHT22;9648;51.130;13.978;2022-11-15T15:47:53;6.10;99.90
19031;DHT22;9648;51.130;13.978;2022-11-15T15:50:24;6.10;99.90
19031;DHT22;9648;51.130;13.978;2022-11-15T15:52:52;6.00;99.90
19031;DHT22;9648;51.130;13.978;2022-11-15T15:55:19;6.00;99.90
19031;DHT22;9648;51.130;13.978;2022-11-15T15:57:48;6.00;99.90
19031;DHT22;9648;51.130;13.978;2022-11-15T16:00:17;5.90;99.90
19031;DHT22;9648;51.130;13.978;2022-11-15T16:02:45;5.90;99.90
19031;DHT22;9648;51.130;13.978;2022-11-15T16:05:12;5.90;99.90
19031;DHT22;9648;51.130;13.978;2022-11-15T16:07:39;5.90;99.90
19031;DHT22;9648;51.130;13.978;2022-11-15T16:10:20;5.80;99.90
19031;DHT22;9648;51.130;13.978;2022-11-15T16:12:49;5.80;99.90
19031;DHT22;9648;51.130;13.978;2022-11-15T16:15:17;5.80;99.90
19031;DHT22;9648;51.130;13.978;2022-11-15T16:17:47;5.80;99.90